Theodore, Alabama
Current Conditions -  °F | °C
As of 3:53 PM on Saturday 25 Oct 2014 (Local Time) from KBFM Reporting Station
Clear Clear  
Wind Chill: 80°   Ceiling: Unl
Heat Index: 80°   Visibility: 10mi
Dew Point: 53°   Wind: 8mph
Humidity: 39%   Direction: 10°N
Pressure: 30.05"   Gusts: NA
Location:  30.55°N, 88.18°W
Report Text: KBFM 252053Z AUTO 01007KT 10SM CLR 27/12 A3005 RMK AO2 SLP176 T02670117 56018
Loading
Personal Weather Stations






























Interactive Weather Map New forecast layout! Learn more

10-Day Weather Forecast

Advertisements
Track Severe Weather on mobile